Time;durP1;ratioP1;P1;durP2;ratioP2;P2;SDS_P1;SDS_P2;PMS_P1;PMS_P2;Temp;Humidity;BMP_temperature;BMP_pressure;BME280_temperature;BME280_humidity;BME280_pressure;Samples;Min_cycle;Max_cycle;Signal;HPM_P1;HPM_P2
2021/09/05 00:02:11;;;;;;;6.00;5.07;;;;;;;11.17;100.00;100940.44;5132246;27;20650;-73
2021/09/05 00:04:36;;;;;;;6.47;4.23;;;;;;;11.11;100.00;100941.63;5131976;27;20182;-73
2021/09/05 00:07:02;;;;;;;7.60;4.87;;;;;;;11.02;100.00;100949.75;5132075;27;20501;-73
2021/09/05 00:09:27;;;;;;;5.03;4.23;;;;;;;10.99;100.00;100947.59;5132151;27;20675;-73
2021/09/05 00:11:53;;;;;;;6.63;5.67;;;;;;;10.94;100.00;100936.75;5132108;27;20589;-73
2021/09/05 00:14:18;;;;;;;5.83;5.00;;;;;;;10.92;100.00;100939.00;5131899;27;20615;-73
2021/09/05 00:16:43;;;;;;;6.83;5.27;;;;;;;10.85;100.00;100936.66;5132120;27;20169;-74
2021/09/05 00:19:09;;;;;;;7.47;5.73;;;;;;;10.87;100.00;100944.56;5131978;27;20256;-73
2021/09/05 00:21:34;;;;;;;7.47;5.93;;;;;;;10.86;100.00;100938.28;5131190;27;20251;-73
2021/09/05 00:23:59;;;;;;;5.30;4.80;;;;;;;10.80;100.00;100936.75;5131870;27;20165;-73
2021/09/05 00:26:25;;;;;;;4.90;4.43;;;;;;;10.60;100.00;100932.44;5131716;27;20259;-73
2021/09/05 00:28:51;;;;;;;7.67;4.83;;;;;;;10.52;100.00;100935.03;5131750;27;20199;-73
2021/09/05 00:31:16;;;;;;;8.00;5.33;;;;;;;10.54;100.00;100939.09;5131820;27;20179;-73
2021/09/05 00:33:42;;;;;;;5.90;5.30;;;;;;;10.55;100.00;100943.44;5131613;27;20228;-73
2021/09/05 00:36:07;;;;;;;5.97;5.47;;;;;;;10.70;100.00;100934.19;5131911;27;20218;-73
2021/09/05 00:38:32;;;;;;;7.20;4.97;;;;;;;10.70;100.00;100940.47;5131786;27;20164;-73
2021/09/05 00:40:58;;;;;;;8.27;4.77;;;;;;;10.71;100.00;100941.28;5131561;27;20178;-73
2021/09/05 00:43:23;;;;;;;7.77;5.17;;;;;;;10.57;100.00;100935.78;5131595;28;20189;-73
2021/09/05 00:45:48;;;;;;;7.90;4.53;;;;;;;10.39;100.00;100937.44;5131515;28;20169;-73
2021/09/05 00:48:14;;;;;;;5.00;4.60;;;;;;;10.34;100.00;100942.16;5131438;28;20235;-73
2021/09/05 00:50:42;;;;;;;5.07;4.33;;;;;;;10.37;100.00;100944.28;5131451;28;20176;-73
2021/09/05 00:53:08;;;;;;;4.97;4.47;;;;;;;10.25;100.00;100941.22;5131431;28;20169;-73
2021/09/05 00:55:37;;;;;;;4.83;4.37;;;;;;;10.04;100.00;100933.31;5131427;28;20169;-73
2021/09/05 00:58:03;;;;;;;5.97;5.33;;;;;;;9.95;100.00;100931.53;5131490;28;20365;-73
2021/09/05 01:00:28;;;;;;;5.10;4.60;;;;;;;9.96;100.00;100938.59;5131397;28;20169;-73
2021/09/05 01:02:54;;;;;;;8.77;6.23;;;;;;;9.94;100.00;100946.28;5131408;28;20169;-73
2021/09/05 01:05:19;;;;;;;5.70;4.63;;;;;;;9.95;100.00;100936.97;5130983;28;20684;-73
2021/09/05 01:07:45;;;;;;;7.20;5.07;;;;;;;10.03;100.00;100950.78;5131301;28;20204;-73
2021/09/05 01:10:12;;;;;;;10.27;5.67;;;;;;;10.05;100.00;100948.56;5131275;28;20184;-73
2021/09/05 01:12:38;;;;;;;10.07;5.20;;;;;;;9.93;100.00;100945.47;5131458;28;20200;-74
2021/09/05 01:15:05;;;;;;;7.43;5.13;;;;;;;9.88;100.00;100955.66;5131094;28;20273;-73
2021/09/05 01:17:36;;;;;;;5.50;4.87;;;;;;;9.93;100.00;100956.38;5131560;28;20622;-73
2021/09/05 01:20:04;;;;;;;5.50;4.53;;;;;;;9.99;100.00;100957.16;5131484;28;20254;-73
2021/09/05 01:22:29;;;;;;;7.30;4.37;;;;;;;10.03;100.00;100941.78;5130947;28;20551;-73
2021/09/05 01:24:55;;;;;;;5.77;4.77;;;;;;;10.09;100.00;100946.88;5131083;28;20180;-73
2021/09/05 01:27:20;;;;;;;4.43;4.03;;;;;;;10.17;100.00;100952.78;5131516;28;20208;-73
2021/09/05 01:29:46;;;;;;;7.73;5.50;;;;;;;10.18;100.00;100948.94;5131545;28;20225;-74
2021/09/05 01:32:12;;;;;;;6.33;4.93;;;;;;;10.17;100.00;100939.94;5131338;27;20218;-74
2021/09/05 01:34:37;;;;;;;7.20;4.90;;;;;;;10.14;100.00;100944.09;5135097;27;20173;-73
2021/09/05 01:37:03;;;;;;;10.07;5.13;;;;;;;10.06;100.00;100949.38;5135017;27;20627;-73
2021/09/05 01:39:28;;;;;;;10.43;5.63;;;;;;;9.94;100.00;100947.09;5135072;27;20252;-73
2021/09/05 01:41:53;;;;;;;13.67;9.37;;;;;;;9.93;100.00;100953.66;5134829;27;20225;-73
2021/09/05 01:44:21;;;;;;;20.33;15.00;;;;;;;9.95;100.00;100951.44;5134818;27;20210;-73
2021/09/05 01:46:47;;;;;;;11.60;10.47;;;;;;;9.98;100.00;100952.75;5134832;27;20175;-73
2021/09/05 01:49:13;;;;;;;10.90;7.93;;;;;;;10.00;100.00;100953.31;5134780;27;20168;-74
2021/09/05 01:51:38;;;;;;;7.43;6.77;;;;;;;10.06;100.00;100952.94;5134902;27;20179;-73
2021/09/05 01:54:04;;;;;;;7.27;5.97;;;;;;;10.07;100.00;100965.47;5134199;27;20183;-74
2021/09/05 01:56:30;;;;;;;6.13;5.47;;;;;;;10.20;100.00;100968.56;5134713;27;20601;-74
2021/09/05 01:58:57;;;;;;;7.83;6.00;;;;;;;10.28;100.00;100971.50;5134819;27;20182;-73
2021/09/05 02:01:24;;;;;;;7.07;5.53;;;;;;;10.32;100.00;100952.59;5141604;27;20208;-73
2021/09/05 02:03:49;;;;;;;5.23;4.80;;;;;;;10.30;100.00;100955.63;5136839;27;20180;-73
2021/09/05 02:06:14;;;;;;;5.03;4.30;;;;;;;10.21;100.00;100959.28;5135225;27;20650;-73
2021/09/05 02:08:40;;;;;;;6.30;5.37;;;;;;;10.08;100.00;100958.91;5134700;27;20232;-73
2021/09/05 02:11:05;;;;;;;5.93;5.43;;;;;;;10.05;100.00;100967.69;5135038;27;20528;-73
2021/09/05 02:13:31;;;;;;;9.77;6.20;;;;;;;10.02;100.00;100965.56;5134231;27;20209;-73
2021/09/05 02:15:57;;;;;;;7.07;5.10;;;;;;;9.81;100.00;100969.66;5134689;27;20559;-73
2021/09/05 02:18:22;;;;;;;10.17;5.90;;;;;;;9.60;100.00;100966.38;5134275;27;20309;-73
2021/09/05 02:20:47;;;;;;;6.60;4.90;;;;;;;9.61;100.00;100970.72;5134072;27;20200;-73
2021/09/05 02:23:13;;;;;;;6.90;5.37;;;;;;;9.64;100.00;100970.16;5133804;27;20244;-73
2021/09/05 02:25:38;;;;;;;8.90;5.80;;;;;;;9.73;100.00;100967.59;5130016;27;20356;-74
2021/09/05 02:28:04;;;;;;;6.77;5.27;;;;;;;9.81;100.00;100980.56;5133720;27;20208;-73
2021/09/05 02:30:29;;;;;;;6.47;5.87;;;;;;;9.82;100.00;100974.00;5133749;27;20220;-73
2021/09/05 02:32:55;;;;;;;4.83;4.30;;;;;;;9.74;100.00;100972.75;5133992;27;20179;-73
2021/09/05 02:35:20;;;;;;;7.97;5.90;;;;;;;9.67;100.00;100968.75;5115068;27;20179;-73
2021/09/05 02:37:45;;;;;;;7.60;5.73;;;;;;;9.67;100.00;100974.19;5133835;27;20164;-73
2021/09/05 02:40:11;;;;;;;5.93;5.13;;;;;;;9.71;100.00;100969.81;5133792;27;20169;-73
2021/09/05 02:42:36;;;;;;;5.80;5.20;;;;;;;9.57;100.00;100964.25;5133704;27;20164;-71
2021/09/05 02:45:04;;;;;;;6.80;5.23;;;;;;;9.29;100.00;100962.41;5132566;27;20179;-72
2021/09/05 02:47:30;;;;;;;9.53;5.67;;;;;;;9.23;100.00;100970.63;5133667;27;20283;-72
2021/09/05 02:49:55;;;;;;;7.13;5.27;;;;;;;9.25;100.00;100973.84;5133684;27;20252;-72
2021/09/05 02:52:21;;;;;;;5.67;5.10;;;;;;;9.34;100.00;100968.59;5133656;27;20172;-73
2021/09/05 02:54:46;;;;;;;5.50;5.00;;;;;;;9.42;100.00;100978.88;5133322;27;20169;-73
2021/09/05 02:57:12;;;;;;;7.23;5.63;;;;;;;9.47;100.00;100970.63;5133730;27;20685;-73
2021/09/05 02:59:37;;;;;;;7.40;5.47;;;;;;;9.56;100.00;101002.72;5133507;27;20689;-73
2021/09/05 03:02:03;;;;;;;10.80;6.17;;;;;;;9.63;100.00;100984.06;5133742;27;20603;-74
2021/09/05 03:04:28;;;;;;;6.97;5.70;;;;;;;9.65;100.00;100973.69;5133198;27;20183;-73
2021/09/05 03:06:54;;;;;;;7.17;5.70;;;;;;;9.43;100.00;100980.50;5133178;27;20209;-73
2021/09/05 03:09:20;;;;;;;7.47;5.80;;;;;;;9.04;100.00;100977.09;5133106;27;20176;-73
2021/09/05 03:11:46;;;;;;;8.27;6.17;;;;;;;9.23;100.00;100986.16;5133287;27;20164;-72
2021/09/05 03:14:11;;;;;;;6.73;6.03;;;;;;;9.36;100.00;100973.75;5132867;27;20825;-73
2021/09/05 03:16:36;;;;;;;8.97;6.20;;;;;;;9.40;100.00;100980.25;5133093;27;20169;-73
2021/09/05 03:19:02;;;;;;;7.00;5.50;;;;;;;9.44;100.00;100968.50;5133024;27;20176;-73
2021/09/05 03:21:27;;;;;;;5.83;5.23;;;;;;;9.38;100.00;100966.91;5132973;27;20217;-73
2021/09/05 03:23:53;;;;;;;7.70;5.23;;;;;;;9.38;100.00;100971.53;5132784;27;20180;-73
2021/09/05 03:26:18;;;;;;;6.30;5.67;;;;;;;9.37;100.00;100962.56;5132980;27;20310;-73
2021/09/05 03:28:43;;;;;;;5.57;5.03;;;;;;;9.40;100.00;100974.78;5132735;27;20200;-72
2021/09/05 03:31:09;;;;;;;9.20;6.80;;;;;;;9.20;100.00;100970.38;5132822;27;20221;-73
2021/09/05 03:33:35;;;;;;;7.63;5.90;;;;;;;9.39;100.00;100973.16;5132675;27;20171;-73
2021/09/05 03:36:00;;;;;;;9.17;5.67;;;;;;;9.24;100.00;100971.44;5132705;27;20164;-73
2021/09/05 03:38:26;;;;;;;7.40;5.77;;;;;;;9.36;100.00;100973.75;5132624;27;20172;-73
2021/09/05 03:40:51;;;;;;;8.57;6.83;;;;;;;9.33;100.00;100975.16;5132605;27;20161;-74
2021/09/05 03:43:16;;;;;;;5.97;5.27;;;;;;;9.46;100.00;100979.09;5132598;27;20196;-73
2021/09/05 03:45:42;;;;;;;7.50;5.73;;;;;;;9.58;100.00;100970.50;5132240;27;20361;-73
2021/09/05 03:48:07;;;;;;;7.17;4.87;;;;;;;9.64;100.00;100975.59;5132424;27;20592;-74
2021/09/05 03:50:32;;;;;;;5.90;4.37;;;;;;;9.65;100.00;100976.41;5132459;27;20242;-73
2021/09/05 03:52:58;;;;;;;5.93;5.23;;;;;;;9.67;100.00;100979.66;5132343;27;20241;-73
2021/09/05 03:55:25;;;;;;;6.97;5.40;;;;;;;9.29;100.00;100976.03;5132151;27;20563;-73
2021/09/05 03:57:50;;;;;;;6.47;5.33;;;;;;;8.90;100.00;100980.50;5132260;27;20318;-74
2021/09/05 04:00:16;;;;;;;8.67;6.13;;;;;;;8.90;100.00;100976.97;5132201;27;20251;-73
2021/09/05 04:02:41;;;;;;;6.47;5.40;;;;;;;9.17;100.00;100979.97;5132240;27;20169;-74
2021/09/05 04:05:07;;;;;;;6.17;5.57;;;;;;;9.32;100.00;100984.44;5131797;27;20188;-73
2021/09/05 04:07:34;;;;;;;5.53;4.43;;;;;;;9.18;100.00;100988.94;5132042;27;20802;-74
2021/09/05 04:10:09;;;;;;;6.40;5.57;;;;;;;9.34;100.00;100993.13;5131994;27;20185;-73
2021/09/05 04:12:43;;;;;;;8.37;5.47;;;;;;;9.43;100.00;100991.41;5132268;27;20160;-73
2021/09/05 04:15:10;;;;;;;4.97;4.47;;;;;;;9.32;100.00;100997.25;5131872;27;20162;-73
2021/09/05 04:17:36;;;;;;;5.33;4.83;;;;;;;9.41;100.00;100993.63;5132088;27;20172;-73
2021/09/05 04:20:03;;;;;;;5.73;4.60;;;;;;;9.48;100.00;100988.63;5132329;27;20211;-74
2021/09/05 04:22:28;;;;;;;4.50;4.03;;;;;;;9.28;100.00;100994.31;5131940;27;20614;-73
2021/09/05 04:24:55;;;;;;;5.03;4.20;;;;;;;9.34;100.00;100998.59;5131705;27;20176;-73
2021/09/05 04:27:20;;;;;;;5.90;4.90;;;;;;;9.34;100.00;100995.06;5131706;27;20252;-74
2021/09/05 04:29:45;;;;;;;6.57;4.13;;;;;;;9.33;100.00;100994.25;5131802;27;20185;-73
2021/09/05 04:32:11;;;;;;;5.80;4.90;;;;;;;9.40;100.00;100997.44;5132249;27;20181;-73
2021/09/05 04:34:36;;;;;;;6.40;4.87;;;;;;;9.44;100.00;101005.84;5131354;27;20175;-74
2021/09/05 04:37:01;;;;;;;5.50;4.60;;;;;;;9.35;100.00;101002.13;5131663;27;20553;-73
2021/09/05 04:39:27;;;;;;;6.90;4.80;;;;;;;9.32;100.00;101008.97;5131744;27;20207;-72
2021/09/05 04:41:52;;;;;;;4.97;4.43;;;;;;;9.27;100.00;101010.97;5131597;27;20538;-74
2021/09/05 04:44:18;;;;;;;5.60;5.00;;;;;;;9.19;100.00;101012.38;5131567;27;20170;-73
2021/09/05 04:46:43;;;;;;;5.53;4.73;;;;;;;9.01;100.00;101003.03;5131509;27;20704;-73
2021/09/05 04:49:10;;;;;;;5.23;4.43;;;;;;;9.15;100.00;101011.34;5131471;27;20212;-73
2021/09/05 04:51:35;;;;;;;4.37;3.77;;;;;;;9.27;100.00;101014.50;5131709;28;20225;-73
2021/09/05 04:54:01;;;;;;;8.17;5.90;;;;;;;9.15;100.00;101016.78;5131413;27;20176;-73
2021/09/05 04:56:26;;;;;;;7.20;5.40;;;;;;;9.24;100.00;101015.84;5131555;28;20169;-73
2021/09/05 04:58:52;;;;;;;6.47;5.73;;;;;;;9.35;100.00;101015.75;5131621;28;20179;-73
2021/09/05 05:01:17;;;;;;;5.23;4.70;;;;;;;9.40;100.00;101016.53;5131332;27;20186;-73
2021/09/05 05:03:42;;;;;;;7.57;5.43;;;;;;;9.42;100.00;101022.50;5131335;27;20180;-73
2021/09/05 05:06:08;;;;;;;5.57;4.93;;;;;;;9.23;100.00;101025.16;5131665;27;20259;-73
2021/09/05 05:08:34;;;;;;;6.73;4.77;;;;;;;9.35;100.00;101032.13;5134162;27;20287;-73
2021/09/05 05:11:00;;;;;;;5.53;4.83;;;;;;;9.44;100.00;101025.75;5135572;27;20176;-73
2021/09/05 05:13:26;;;;;;;8.67;5.57;;;;;;;9.45;100.00;101026.56;5135552;27;20172;-73
2021/09/05 05:15:52;;;;;;;7.90;5.30;;;;;;;9.54;100.00;101035.72;5135222;27;20173;-73
2021/09/05 05:18:17;;;;;;;6.20;5.43;;;;;;;9.57;100.00;101034.34;5135277;27;20573;-73
2021/09/05 05:20:42;;;;;;;8.00;5.50;;;;;;;9.65;100.00;101036.44;5135461;27;20179;-73
2021/09/05 05:23:08;;;;;;;7.33;5.77;;;;;;;9.69;100.00;101035.59;5135327;27;20172;-73
2021/09/05 05:25:33;;;;;;;7.20;6.23;;;;;;;9.73;100.00;101038.53;5135089;27;20176;-73
2021/09/05 05:27:59;;;;;;;7.70;6.40;;;;;;;9.78;100.00;101036.53;5135115;27;20628;-73
2021/09/05 05:30:24;;;;;;;8.00;6.83;;;;;;;9.84;100.00;101046.31;5135630;27;20168;-73
2021/09/05 05:32:49;;;;;;;8.67;7.23;;;;;;;9.86;100.00;101045.22;5135476;27;20631;-73
2021/09/05 05:35:15;;;;;;;8.17;7.33;;;;;;;9.85;100.00;101052.59;5135073;27;20205;-74
2021/09/05 05:37:40;;;;;;;13.03;7.67;;;;;;;9.90;100.00;101048.97;5135076;27;20653;-72
2021/09/05 05:40:07;;;;;;;8.17;7.33;;;;;;;9.89;100.00;101059.06;5134994;27;20184;-73
2021/09/05 05:42:33;;;;;;;7.10;6.40;;;;;;;9.92;100.00;101053.03;5134888;27;20200;-73
2021/09/05 05:44:58;;;;;;;7.50;6.70;;;;;;;9.93;100.00;101057.38;5134637;27;20684;-73
2021/09/05 05:47:26;;;;;;;8.07;6.53;;;;;;;9.90;100.00;101052.50;5134818;27;20204;-73
2021/09/05 05:49:52;;;;;;;7.23;5.70;;;;;;;9.92;100.00;101058.47;5134745;27;20176;-73
2021/09/05 05:52:17;;;;;;;8.73;5.93;;;;;;;9.96;100.00;101056.78;5134618;27;20164;-74
2021/09/05 05:54:42;;;;;;;7.90;6.57;;;;;;;9.91;100.00;101059.59;5134470;27;20760;-74
2021/09/05 05:57:08;;;;;;;8.37;6.10;;;;;;;9.89;100.00;101064.53;5134671;27;20255;-73
2021/09/05 05:59:33;;;;;;;7.63;6.33;;;;;;;9.97;100.00;101052.94;5134694;27;20251;-73
2021/09/05 06:01:59;;;;;;;6.30;5.37;;;;;;;9.97;100.00;101044.75;5134441;27;20175;-73
2021/09/05 06:04:25;;;;;;;6.07;5.37;;;;;;;9.94;100.00;101061.72;5134277;27;20560;-73
2021/09/05 06:06:52;;;;;;;5.37;4.67;;;;;;;9.87;100.00;101061.28;5134378;27;20169;-73
2021/09/05 06:09:18;;;;;;;5.47;4.23;;;;;;;9.86;100.00;101064.31;5134440;27;20210;-73
2021/09/05 06:11:43;;;;;;;4.53;4.10;;;;;;;9.88;100.00;101073.81;5134391;27;20172;-73
2021/09/05 06:14:08;;;;;;;5.37;4.87;;;;;;;9.49;100.00;101066.59;5134040;27;20256;-73
2021/09/05 06:16:34;;;;;;;5.80;5.00;;;;;;;9.21;100.00;101061.97;5134038;27;20221;-73
2021/09/05 06:19:00;;;;;;;6.03;5.43;;;;;;;9.08;100.00;101070.81;5132884;27;20636;-73
2021/09/05 06:21:25;;;;;;;5.20;4.73;;;;;;;9.43;100.00;101067.78;5134134;27;20169;-74
2021/09/05 06:23:52;;;;;;;6.20;5.37;;;;;;;9.33;100.00;101067.88;5133964;27;20586;-73
2021/09/05 06:26:17;;;;;;;6.10;5.33;;;;;;;9.64;100.00;101078.47;5134116;27;20275;-74
2021/09/05 06:28:43;;;;;;;7.07;5.87;;;;;;;9.59;100.00;101082.06;5134095;27;20287;-73
2021/09/05 06:31:08;;;;;;;6.50;5.37;;;;;;;9.82;100.00;101083.16;5134436;27;20545;-74
2021/09/05 06:33:33;;;;;;;6.97;5.90;;;;;;;9.96;100.00;101086.81;5133901;27;20173;-72
2021/09/05 06:35:59;;;;;;;8.97;6.80;;;;;;;9.91;100.00;101089.63;5133767;27;20176;-73
2021/09/05 06:38:24;;;;;;;10.37;7.43;;;;;;;9.89;100.00;101097.28;5133795;27;20563;-72
2021/09/05 06:40:49;;;;;;;11.60;9.33;;;;;;;9.81;100.00;101098.72;5133862;27;20180;-72
2021/09/05 06:43:16;;;;;;;8.90;7.80;;;;;;;9.94;100.00;101096.41;5133651;27;20180;-72
2021/09/05 06:45:42;;;;;;;12.87;7.90;;;;;;;9.97;100.00;101098.53;5133428;27;20267;-72
2021/09/05 06:48:07;;;;;;;9.20;7.73;;;;;;;9.96;100.00;101103.19;5133550;27;20290;-72
2021/09/05 06:50:32;;;;;;;7.93;7.13;;;;;;;9.96;100.00;101111.38;5133833;27;20206;-73
2021/09/05 06:52:58;;;;;;;8.73;6.80;;;;;;;10.01;100.00;101110.53;5133674;27;20180;-73
2021/09/05 06:55:23;;;;;;;8.17;6.87;;;;;;;10.25;100.00;101110.53;5133446;27;20180;-72
2021/09/05 06:57:48;;;;;;;10.40;8.43;;;;;;;10.28;100.00;101113.50;5133436;27;20176;-73
2021/09/05 07:00:14;;;;;;;12.57;8.70;;;;;;;10.45;100.00;101098.53;5133260;27;20650;-73
2021/09/05 07:02:40;;;;;;;8.80;7.30;;;;;;;10.46;100.00;101113.81;5133286;27;20173;-73
2021/09/05 07:05:05;;;;;;;12.07;9.10;;;;;;;10.51;100.00;101106.34;5133381;27;20180;-73
2021/09/05 07:07:31;;;;;;;11.27;9.87;;;;;;;10.52;100.00;101110.69;5133134;27;20674;-72
2021/09/05 07:09:56;;;;;;;13.77;9.57;;;;;;;10.70;100.00;101112.66;5133072;27;20164;-73
2021/09/05 07:12:21;;;;;;;9.73;8.73;;;;;;;10.85;100.00;101119.81;5133041;27;20211;-72
2021/09/05 07:14:50;;;;;;;9.43;8.43;;;;;;;10.94;100.00;101120.75;5132871;27;20173;-73
2021/09/05 07:17:15;;;;;;;8.30;7.47;;;;;;;11.12;100.00;101113.63;5132908;27;20246;-73
2021/09/05 07:19:40;;;;;;;9.23;8.27;;;;;;;11.02;100.00;101119.28;5133040;27;20207;-73
2021/09/05 07:22:06;;;;;;;8.70;7.80;;;;;;;11.03;100.00;101107.22;5132992;27;20244;-73
2021/09/05 07:24:31;;;;;;;9.13;8.20;;;;;;;11.13;100.00;101109.78;5132640;27;20308;-73
2021/09/05 07:26:57;;;;;;;11.17;7.70;;;;;;;11.21;100.00;101114.56;5132777;27;20168;-73
2021/09/05 07:29:22;;;;;;;7.97;7.17;;;;;;;11.24;100.00;101105.75;5132853;27;20222;-73
2021/09/05 07:31:48;;;;;;;8.20;6.93;;;;;;;11.42;100.00;101114.22;5132236;27;20172;-73
2021/09/05 07:34:13;;;;;;;7.97;6.67;;;;;;;11.55;100.00;101116.97;5132299;27;20251;-72
2021/09/05 07:36:38;;;;;;;12.23;7.47;;;;;;;11.69;100.00;101117.00;5132459;27;20248;-72
2021/09/05 07:39:04;;;;;;;9.03;7.90;;;;;;;11.56;100.00;101121.34;5132701;27;20182;-73
2021/09/05 07:41:30;;;;;;;8.73;7.87;;;;;;;11.70;100.00;101123.28;5132526;27;20169;-73
2021/09/05 07:43:55;;;;;;;8.70;7.93;;;;;;;11.70;100.00;101123.28;5132334;27;20213;-73
2021/09/05 07:46:21;;;;;;;8.13;7.03;;;;;;;11.68;100.00;101125.53;5132556;27;20173;-73
2021/09/05 07:48:46;;;;;;;7.90;7.10;;;;;;;11.78;100.00;101128.09;5132764;27;20204;-72
2021/09/05 07:51:12;;;;;;;13.23;8.70;;;;;;;11.72;100.00;101124.63;5132457;27;20172;-72
2021/09/05 07:53:37;;;;;;;9.87;8.27;;;;;;;11.71;100.00;101128.47;5132230;27;20567;-73
2021/09/05 07:56:03;;;;;;;12.17;8.13;;;;;;;11.89;100.00;101126.81;5130182;27;20628;-77
2021/09/05 07:58:28;;;;;;;9.70;7.23;;;;;;;12.08;100.00;101123.97;5120039;27;20188;-75
2021/09/05 08:00:55;;;;;;;8.53;6.60;;;;;;;12.08;100.00;101134.94;5132056;27;20233;-78
2021/09/05 08:03:21;;;;;;;10.57;8.00;;;;;;;12.00;100.00;101132.88;5132132;27;20683;-75
2021/09/05 08:05:46;;;;;;;8.43;7.53;;;;;;;12.04;100.00;101134.72;5132004;27;20212;-75
2021/09/05 08:08:11;;;;;;;9.30;8.50;;;;;;;12.07;100.00;101130.56;5131593;27;20242;-77
2021/09/05 08:10:39;;;;;;;9.47;8.50;;;;;;;12.32;100.00;101142.94;5128868;27;20362;-76
2021/09/05 08:13:04;;;;;;;8.83;7.17;;;;;;;12.13;100.00;101134.81;5131565;27;20611;-77
2021/09/05 08:15:30;;;;;;;8.37;7.57;;;;;;;12.06;100.00;101148.13;5131326;27;20262;-78
2021/09/05 08:17:56;;;;;;;8.80;7.90;;;;;;;12.10;100.00;101143.66;5132114;27;20251;-74
2021/09/05 08:20:21;;;;;;;8.93;8.03;;;;;;;12.00;100.00;101141.09;5138288;27;20172;-74
2021/09/05 08:22:47;;;;;;;8.20;7.40;;;;;;;12.02;100.00;101152.59;5139833;27;20180;-74
2021/09/05 08:25:14;;;;;;;9.07;7.50;;;;;;;12.15;100.00;101158.06;5133102;27;20173;-73
2021/09/05 08:27:39;;;;;;;7.83;7.13;;;;;;;12.29;100.00;101152.56;5132651;27;20591;-73
2021/09/05 08:30:05;;;;;;;7.90;7.07;;;;;;;12.45;100.00;101158.56;5131827;27;20204;-73
2021/09/05 08:32:30;;;;;;;8.57;6.70;;;;;;;12.60;100.00;101162.91;5131857;27;20177;-73
2021/09/05 08:34:56;;;;;;;9.57;7.30;;;;;;;12.71;100.00;101156.06;5113367;28;20172;-73
2021/09/05 08:37:21;;;;;;;14.70;7.67;;;;;;;12.81;100.00;101161.31;5131926;27;20173;-73
2021/09/05 08:39:47;;;;;;;7.67;6.97;;;;;;;12.86;100.00;101161.19;5131857;27;20172;-72
2021/09/05 08:42:12;;;;;;;6.83;6.07;;;;;;;12.92;100.00;101159.97;5131020;27;20183;-73
2021/09/05 08:44:37;;;;;;;7.50;6.80;;;;;;;13.08;100.00;101161.25;5131762;27;20174;-73
2021/09/05 08:47:03;;;;;;;9.13;6.77;;;;;;;13.06;100.00;101165.41;5131864;28;20263;-73
2021/09/05 08:49:33;;;;;;;7.83;7.20;;;;;;;13.05;100.00;101167.34;5131669;28;20251;-72
2021/09/05 08:51:59;;;;;;;10.30;7.03;;;;;;;12.92;100.00;101167.41;5131767;28;20164;-73
2021/09/05 08:54:25;;;;;;;8.33;7.10;;;;;;;12.99;100.00;101165.84;5131550;28;20252;-72
2021/09/05 08:56:52;;;;;;;6.97;5.77;;;;;;;13.06;100.00;101171.72;5113148;28;20271;-72
2021/09/05 08:59:18;;;;;;;10.20;7.67;;;;;;;13.35;100.00;101179.56;5131601;28;20195;-73
2021/09/05 09:02:03;;;;;;;8.50;6.77;;;;;;;13.26;100.00;101177.88;5131836;28;20628;-72
2021/09/05 09:04:37;;;;;;;8.43;7.53;;;;;;;13.43;100.00;101174.44;5130839;28;20275;-73
2021/09/05 09:07:14;;;;;;;7.83;7.03;;;;;;;13.64;100.00;101170.88;5131480;28;20561;-72
2021/09/05 09:10:03;;;;;;;9.70;8.80;;;;;;;13.68;100.00;101173.78;5131166;28;20187;-72
2021/09/05 09:12:55;;;;;;;9.70;8.30;;;;;;;13.68;100.00;101168.31;5128901;28;20184;-72
2021/09/05 09:15:26;;;;;;;10.10;8.63;;;;;;;13.86;100.00;101172.75;5109778;28;20184;-72
2021/09/05 09:18:00;;;;;;;9.13;7.77;;;;;;;13.99;100.00;101165.53;5131288;28;20180;-72
2021/09/05 09:20:34;;;;;;;9.87;8.97;;;;;;;14.16;100.00;101160.13;5131287;28;20748;-73
2021/09/05 09:23:20;;;;;;;9.97;8.43;;;;;;;14.26;100.00;101165.34;5115223;28;20176;-72
2021/09/05 09:26:13;;;;;;;9.30;8.50;;;;;;;14.42;100.00;101168.44;5110607;28;20180;-72
2021/09/05 09:28:39;;;;;;;12.30;7.93;;;;;;;14.61;100.00;101165.47;5105673;28;20247;-72
2021/09/05 09:31:11;;;;;;;8.43;7.63;;;;;;;14.56;100.00;101171.91;5092351;28;20177;-73
2021/09/05 09:33:36;;;;;;;10.17;9.17;;;;;;;14.74;100.00;101171.94;5126872;28;20221;-73
2021/09/05 09:36:04;;;;;;;10.47;9.37;;;;;;;14.70;100.00;101171.78;5130993;28;20176;-73
2021/09/05 09:38:29;;;;;;;10.13;8.60;;;;;;;14.77;100.00;101168.56;5131109;28;20180;-73
2021/09/05 09:41:09;;;;;;;10.53;9.60;;;;;;;14.80;100.00;101171.47;5130982;28;20173;-73
2021/09/05 09:43:54;;;;;;;9.93;8.93;;;;;;;15.04;100.00;101168.25;5130872;28;20175;-73
2021/09/05 09:46:28;;;;;;;10.77;9.77;;;;;;;14.98;100.00;101177.00;5130987;28;20247;-73
2021/09/05 09:49:02;;;;;;;10.90;9.87;;;;;;;14.59;100.00;101167.72;5130823;28;20200;-73
2021/09/05 09:51:28;;;;;;;10.87;9.83;;;;;;;14.70;100.00;101166.28;5130939;28;20175;-74
2021/09/05 09:53:55;;;;;;;10.97;9.63;;;;;;;14.78;100.00;101172.94;5131891;27;20647;-73
2021/09/05 09:56:21;;;;;;;13.30;9.63;;;;;;;15.11;100.00;101176.03;5134731;27;20327;-74
2021/09/05 09:58:56;;;;;;;10.67;9.53;;;;;;;15.29;100.00;101169.38;5134524;27;20171;-74
2021/09/05 10:01:24;;;;;;;12.33;10.57;;;;;;;15.23;100.00;101170.69;5134587;27;20171;-74
2021/09/05 10:03:51;;;;;;;10.97;9.87;;;;;;;15.32;100.00;101168.72;5134205;27;20185;-74
2021/09/05 10:06:18;;;;;;;11.53;10.43;;;;;;;15.13;100.00;101171.00;5134484;27;20168;-74
2021/09/05 10:08:44;;;;;;;14.33;11.33;;;;;;;15.34;100.00;101176.69;5134385;27;20867;-74
2021/09/05 10:11:12;;;;;;;11.30;10.23;;;;;;;15.32;100.00;101170.66;5134415;27;20409;-73
2021/09/05 10:13:39;;;;;;;11.57;10.37;;;;;;;15.38;100.00;101170.19;5134150;27;20251;-74
2021/09/05 10:16:05;;;;;;;11.40;9.60;;;;;;;15.44;100.00;101163.38;5134262;27;20164;-74
2021/09/05 10:18:34;;;;;;;12.57;8.70;;;;;;;15.44;100.00;101166.13;5134142;27;20616;-73
2021/09/05 10:21:00;;;;;;;9.30;8.40;;;;;;;15.58;100.00;101165.13;5133960;27;20168;-73
2021/09/05 10:23:30;;;;;;;10.43;8.63;;;;;;;15.73;100.00;101170.13;5115651;27;20629;-74
2021/09/05 10:26:03;;;;;;;9.57;8.67;;;;;;;16.08;100.00;101170.03;5134354;27;20532;-74
2021/09/05 10:28:53;;;;;;;10.07;9.07;;;;;;;16.18;100.00;101162.19;5133968;27;20196;-74
2021/09/05 10:31:41;;;;;;;9.57;8.67;;;;;;;16.17;99.84;101165.28;5133255;27;20206;-73
2021/09/05 10:34:32;;;;;;;11.33;10.27;;;;;;;16.30;97.21;101161.50;5117588;27;20186;-73
2021/09/05 10:37:11;;;;;;;11.20;10.10;;;;;;;16.23;97.52;101161.22;5133832;27;20191;-74
2021/09/05 10:39:56;;;;;;;10.53;9.23;;;;;;;16.13;98.43;101156.88;5133898;27;20528;-73
2021/09/05 10:42:24;;;;;;;9.03;8.23;;;;;;;16.22;100.00;101162.34;5133911;27;20549;-74
2021/09/05 10:45:01;;;;;;;14.10;9.70;;;;;;;16.27;97.99;101153.88;5134052;27;20164;-73
2021/09/05 10:47:39;;;;;;;10.33;8.97;;;;;;;16.52;96.77;101160.41;5133443;27;20168;-73
2021/09/05 10:50:26;;;;;;;10.33;8.80;;;;;;;16.52;95.14;101155.69;5133576;27;20172;-73
2021/09/05 10:52:52;;;;;;;10.57;7.47;;;;;;;16.72;95.37;101162.41;5133510;27;20164;-73
2021/09/05 10:55:19;;;;;;;9.87;8.30;;;;;;;16.66;95.41;101161.78;5133347;27;20177;-74
2021/09/05 10:57:44;;;;;;;8.57;7.67;;;;;;;16.81;95.57;101154.06;5133372;27;20708;-74
2021/09/05 11:00:10;;;;;;;8.57;7.77;;;;;;;16.64;94.41;101152.22;5133688;27;20176;-74
2021/09/05 11:03:05;;;;;;;9.77;7.90;;;;;;;16.59;95.64;101150.44;5133512;27;20165;-73
2021/09/05 11:05:31;;;;;;;7.73;6.93;;;;;;;16.67;94.44;101146.06;5121556;27;20200;-73
2021/09/05 11:08:23;;;;;;;9.30;7.77;;;;;;;16.71;94.92;101157.22;5133683;27;20248;-74
2021/09/05 11:10:49;;;;;;;10.93;8.27;;;;;;;16.88;94.03;101157.09;5133470;27;20647;-74
2021/09/05 11:13:49;;;;;;;9.17;8.37;;;;;;;16.88;93.86;101157.09;5133047;27;20187;-74
2021/09/05 11:16:17;;;;;;;8.17;7.37;;;;;;;17.02;95.72;101146.59;5133177;27;20169;-74
2021/09/05 11:18:43;;;;;;;7.73;7.00;;;;;;;17.09;94.99;101152.41;5133083;27;20179;-73
2021/09/05 11:21:24;;;;;;;6.57;5.97;;;;;;;17.27;93.13;101155.00;5132985;27;20585;-73